createdAt,value
2019-05-06T00:00:53.141Z,99.9
2019-05-06T00:02:06.265Z,99.9
2019-05-06T00:03:13.903Z,99.9
2019-05-06T00:04:21.142Z,99.9
2019-05-06T00:05:30.420Z,99.9
2019-05-06T00:06:39.869Z,99.9
2019-05-06T00:07:46.804Z,99.9
2019-05-06T00:08:54.510Z,99.9
2019-05-06T00:10:01.894Z,99.9
2019-05-06T00:11:11.533Z,99.9
2019-05-06T00:12:20.949Z,99.9
2019-05-06T00:13:30.189Z,99.9
2019-05-06T00:14:37.119Z,99.9
2019-05-06T00:15:44.317Z,99.9
2019-05-06T00:16:51.518Z,99.9
2019-05-06T00:18:04.797Z,99.9
2019-05-06T00:19:13.856Z,99.9
2019-05-06T00:20:20.920Z,99.9
2019-05-06T00:21:30.650Z,99.9
2019-05-06T00:22:37.871Z,99.9
2019-05-06T00:23:45.069Z,99.9
2019-05-06T00:24:54.559Z,99.9
2019-05-06T00:26:03.894Z,99.9
2019-05-06T00:27:11.230Z,99.9
2019-05-06T00:28:20.399Z,99.9
2019-05-06T00:29:27.614Z,99.9
2019-05-06T00:30:34.821Z,99.9
2019-05-06T00:31:43.880Z,99.9
2019-05-06T00:32:51.194Z,99.9
2019-05-06T00:34:00.539Z,99.9
2019-05-06T00:35:10.103Z,99.9
2019-05-06T00:36:16.963Z,99.9
2019-05-06T00:37:24.202Z,99.9
2019-05-06T00:38:31.133Z,99.9
2019-05-06T00:39:40.641Z,99.9
2019-05-06T00:40:50.199Z,99.9
2019-05-06T00:41:57.420Z,99.9
2019-05-06T00:43:04.847Z,99.9
2019-05-06T00:44:14.199Z,99.9
2019-05-06T00:45:21.264Z,99.9
2019-05-06T00:46:30.542Z,99.9
2019-05-06T00:47:37.482Z,99.9
2019-05-06T00:48:44.916Z,99.9
2019-05-06T00:49:54.411Z,99.9
2019-05-06T00:51:01.749Z,99.9
2019-05-06T00:52:11.167Z,99.9
2019-05-06T00:53:20.324Z,99.9
2019-05-06T00:54:26.990Z,99.9
2019-05-06T00:55:34.206Z,99.9
2019-05-06T00:56:41.412Z,99.9
2019-05-06T00:57:50.977Z,99.9
2019-05-06T00:59:00.187Z,99.9
2019-05-06T01:00:09.491Z,99.9
2019-05-06T01:01:25.699Z,99.9
2019-05-06T01:02:36.500Z,99.9
2019-05-06T01:03:44.223Z,99.9
2019-05-06T01:04:51.476Z,99.9
2019-05-06T01:06:00.841Z,99.9
2019-05-06T01:07:10.528Z,99.9
2019-05-06T01:08:19.768Z,99.9
2019-05-06T01:09:26.973Z,99.9
2019-05-06T01:10:34.441Z,99.9
2019-05-06T01:11:41.732Z,99.9
2019-05-06T01:12:51.131Z,99.9
2019-05-06T01:14:00.635Z,99.9
2019-05-06T01:15:10.144Z,99.9
2019-05-06T01:16:17.344Z,99.9
2019-05-06T01:17:24.574Z,99.9
2019-05-06T01:18:31.513Z,99.9
2019-05-06T01:19:40.817Z,99.9
2019-05-06T01:20:47.760Z,99.9
2019-05-06T01:21:54.682Z,99.9
2019-05-06T01:23:03.525Z,99.9
2019-05-06T01:24:10.904Z,99.9
2019-05-06T01:25:17.844Z,99.9
2019-05-06T01:26:25.036Z,99.9
2019-05-06T01:27:33.735Z,99.9
2019-05-06T01:28:40.729Z,99.9
2019-05-06T01:29:49.769Z,99.9
2019-05-06T01:30:56.984Z,99.9
2019-05-06T01:32:04.187Z,99.9
2019-05-06T01:33:11.389Z,99.9
2019-05-06T01:34:20.859Z,99.9
2019-05-06T01:35:27.799Z,99.9
2019-05-06T01:36:34.731Z,99.9
2019-05-06T01:37:43.928Z,99.9
2019-05-06T01:38:53.367Z,99.9
2019-05-06T01:40:00.487Z,99.9
2019-05-06T01:41:10.283Z,99.9
2019-05-06T01:42:19.861Z,99.9
2019-05-06T01:43:26.519Z,99.9
2019-05-06T01:44:33.956Z,99.9
2019-05-06T01:45:41.241Z,99.9
2019-05-06T01:46:50.159Z,99.9
2019-05-06T01:47:57.101Z,99.9
2019-05-06T01:49:04.427Z,99.9
2019-05-06T01:50:11.630Z,99.9
2019-05-06T01:51:20.535Z,99.9
2019-05-06T01:52:30.317Z,99.9
2019-05-06T01:53:37.540Z,99.9
2019-05-06T01:54:44.741Z,99.9
2019-05-06T01:55:51.677Z,99.9
2019-05-06T01:57:00.563Z,99.9
2019-05-06T01:58:07.494Z,99.9
2019-05-06T01:59:14.422Z,99.9
2019-05-06T02:00:23.212Z,99.9
2019-05-06T02:01:30.917Z,99.9
2019-05-06T02:02:40.055Z,99.9
2019-05-06T02:03:49.687Z,99.9
2019-05-06T02:04:56.897Z,99.9
2019-05-06T02:06:04.817Z,99.9
2019-05-06T02:07:14.290Z,99.9
2019-05-06T02:08:21.621Z,99.9
2019-05-06T02:09:31.159Z,99.9
2019-05-06T02:10:39.995Z,99.9
2019-05-06T02:11:47.991Z,99.9
2019-05-06T02:12:55.385Z,99.9
2019-05-06T02:14:04.464Z,99.9
2019-05-06T02:15:11.668Z,99.9
2019-05-06T02:16:20.859Z,99.9
2019-05-06T02:17:30.332Z,99.9
2019-05-06T02:18:37.542Z,99.9
2019-05-06T02:19:44.760Z,99.9
2019-05-06T02:20:53.416Z,99.9
2019-05-06T02:22:01.013Z,99.9
2019-05-06T02:23:10.462Z,99.9
2019-05-06T02:24:17.669Z,99.9
2019-05-06T02:25:24.619Z,99.9
2019-05-06T02:26:31.870Z,99.9
2019-05-06T02:29:04.256Z,99.9
2019-05-06T02:30:11.553Z,99.9
2019-05-06T02:31:21.937Z,99.9
2019-05-06T02:32:35.489Z,99.9
2019-05-06T02:33:44.736Z,99.9
2019-05-06T02:34:54.531Z,99.9
2019-05-06T02:36:01.990Z,99.9
2019-05-06T02:37:14.637Z,99.9
2019-05-06T02:38:23.253Z,99.9
2019-05-06T02:40:03.976Z,99.9
2019-05-06T02:41:13.393Z,99.9
2019-05-06T02:42:20.469Z,99.9
2019-05-06T02:43:33.950Z,99.9
2019-05-06T02:44:44.063Z,99.9
2019-05-06T02:45:53.051Z,99.9
2019-05-06T02:47:02.570Z,99.9
2019-05-06T02:48:10.115Z,99.9
2019-05-06T02:49:23.463Z,99.9
2019-05-06T02:50:33.703Z,99.9
2019-05-06T02:51:43.953Z,99.9
2019-05-06T02:52:53.647Z,99.9
2019-05-06T02:54:03.186Z,99.9
2019-05-06T02:55:12.908Z,99.9
2019-05-06T02:56:20.049Z,99.9
2019-05-06T02:57:33.073Z,99.9
2019-05-06T02:58:43.365Z,99.9
2019-05-06T02:59:50.831Z,99.9
2019-05-06T03:01:03.453Z,99.9
2019-05-06T03:02:13.925Z,99.9
2019-05-06T03:03:43.529Z,99.9
2019-05-06T03:04:52.800Z,99.9
2019-05-06T03:06:00.160Z,99.9
2019-05-06T03:07:14.086Z,99.9
2019-05-06T03:08:23.625Z,99.9
2019-05-06T03:09:33.623Z,99.9
2019-05-06T03:10:43.714Z,99.9
2019-05-06T03:11:53.915Z,99.9
2019-05-06T03:13:02.955Z,99.9
2019-05-06T03:14:10.359Z,99.9
2019-05-06T03:15:23.587Z,99.9
2019-05-06T03:16:33.252Z,99.9
2019-05-06T03:17:43.156Z,99.9
2019-05-06T03:18:53.073Z,99.9
2019-05-06T03:20:03.855Z,99.9
2019-05-06T03:21:13.761Z,99.9
2019-05-06T03:22:23.952Z,99.9
2019-05-06T03:23:35.330Z,99.9
2019-05-06T03:24:43.595Z,99.9
2019-05-06T03:25:53.181Z,99.9
2019-05-06T03:27:04.116Z,99.9
2019-05-06T03:28:13.224Z,99.9
2019-05-06T03:29:20.528Z,99.9
2019-05-06T03:30:35.637Z,99.9
2019-05-06T03:31:46.207Z,99.9
2019-05-06T03:33:23.107Z,99.9
2019-05-06T03:36:09.108Z,99.9
2019-05-06T03:37:53.237Z,99.9
2019-05-06T03:39:03.014Z,99.9
2019-05-06T03:40:10.091Z,99.9
2019-05-06T03:41:23.349Z,99.9
2019-05-06T03:42:33.697Z,99.9
2019-05-06T03:43:43.294Z,99.9
2019-05-06T03:44:53.180Z,99.9
2019-05-06T03:46:00.419Z,99.9
2019-05-06T03:47:13.633Z,99.9
2019-05-06T03:48:23.640Z,99.9
2019-05-06T03:49:33.789Z,99.9
2019-05-06T03:50:43.737Z,99.9
2019-05-06T03:51:55.744Z,99.9
2019-05-06T03:53:03.449Z,99.9
2019-05-06T03:54:12.766Z,99.9
2019-05-06T03:55:19.841Z,99.9
2019-05-06T03:56:29.872Z,99.9
2019-05-06T03:57:42.742Z,99.9
2019-05-06T03:58:50.219Z,99.9
2019-05-06T04:00:00.217Z,99.9
2019-05-06T04:01:13.127Z,99.9
2019-05-06T04:02:20.471Z,99.9
2019-05-06T04:03:43.751Z,99.9
2019-05-06T04:05:04.225Z,99.9
2019-05-06T04:06:13.746Z,99.9
2019-05-06T04:07:23.362Z,99.9
2019-05-06T04:08:33.842Z,99.9
2019-05-06T04:09:44.093Z,99.9
2019-05-06T04:10:53.708Z,99.9
2019-05-06T04:12:03.467Z,99.9
2019-05-06T04:13:13.412Z,99.9
2019-05-06T04:14:23.689Z,99.9
2019-05-06T04:15:34.031Z,99.9
2019-05-06T04:16:43.950Z,99.9
2019-05-06T04:17:53.758Z,99.9
2019-05-06T04:19:03.841Z,99.9
2019-05-06T04:20:12.737Z,99.9
2019-05-06T04:21:19.776Z,99.9
2019-05-06T04:22:32.941Z,99.9
2019-05-06T04:23:43.465Z,99.9
2019-05-06T04:24:53.682Z,99.9
2019-05-06T04:26:03.194Z,99.9
2019-05-06T04:27:13.348Z,99.9
2019-05-06T04:28:23.426Z,99.9
2019-05-06T04:29:33.031Z,99.9
2019-05-06T04:30:42.944Z,99.9
2019-05-06T04:31:50.246Z,99.9
2019-05-06T04:33:03.234Z,99.9
2019-05-06T04:34:15.422Z,99.9
2019-05-06T04:35:29.643Z,99.9
2019-05-06T04:36:39.996Z,99.9
2019-05-06T04:37:53.515Z,99.9
2019-05-06T04:39:04.036Z,99.9
2019-05-06T04:40:12.905Z,99.9
2019-05-06T04:41:23.040Z,99.9
2019-05-06T04:42:34.381Z,99.9
2019-05-06T04:43:43.818Z,99.9
2019-05-06T04:44:53.083Z,99.9
2019-05-06T04:46:02.877Z,99.9
2019-05-06T04:47:10.384Z,99.9
2019-05-06T04:48:23.451Z,99.9
2019-05-06T04:49:33.015Z,99.9
2019-05-06T04:50:40.134Z,99.9
2019-05-06T04:51:53.834Z,99.9
2019-05-06T04:53:04.472Z,99.9
2019-05-06T04:54:13.523Z,99.9
2019-05-06T04:55:22.613Z,99.9
2019-05-06T04:56:29.622Z,99.9
2019-05-06T04:57:39.991Z,99.9
2019-05-06T04:58:50.260Z,99.9
2019-05-06T05:00:03.637Z,99.9
2019-05-06T05:01:12.871Z,99.9
2019-05-06T05:02:23.061Z,99.9
2019-05-06T05:03:30.120Z,99.9
2019-05-06T05:04:43.073Z,99.9
2019-05-06T05:05:52.929Z,99.9
2019-05-06T05:07:00.351Z,99.9
2019-05-06T05:08:10.073Z,99.9
2019-05-06T05:09:19.805Z,99.9
2019-05-06T05:10:29.496Z,99.9
2019-05-06T05:11:39.029Z,99.9
2019-05-06T05:12:48.602Z,99.9
2019-05-06T05:13:58.643Z,99.9
2019-05-06T05:15:09.106Z,99.9
2019-05-06T05:16:18.119Z,99.9
2019-05-06T05:17:25.324Z,99.9
2019-05-06T05:18:32.528Z,99.9
2019-05-06T05:19:39.760Z,99.9
2019-05-06T05:20:49.108Z,99.9
2019-05-06T05:21:58.606Z,99.9
2019-05-06T05:23:05.814Z,99.9
2019-05-06T05:24:13.027Z,99.9
2019-05-06T05:25:22.018Z,99.9
2019-05-06T05:26:29.384Z,99.9
2019-05-06T05:27:38.925Z,99.9
2019-05-06T05:28:48.388Z,99.9
2019-05-06T05:29:55.351Z,99.9
2019-05-06T05:31:03.101Z,99.9
2019-05-06T05:32:10.116Z,99.9
2019-05-06T05:33:19.417Z,99.9
2019-05-06T05:34:37.879Z,99.9
2019-05-06T05:35:49.549Z,99.9
2019-05-06T05:36:58.967Z,99.9
2019-05-06T05:38:06.183Z,99.9
2019-05-06T05:39:13.391Z,99.9
2019-05-06T05:40:22.437Z,99.9
2019-05-06T05:41:29.722Z,99.9
2019-05-06T05:42:38.899Z,99.9
2019-05-06T05:43:48.149Z,99.9
2019-05-06T05:44:55.357Z,99.9
2019-05-06T05:46:02.970Z,99.9
2019-05-06T05:47:12.226Z,99.9
2019-05-06T05:48:19.293Z,99.9
2019-05-06T05:49:29.133Z,99.9
2019-05-06T05:50:38.189Z,99.9
2019-05-06T05:51:47.771Z,99.9
2019-05-06T05:52:54.697Z,99.9
2019-05-06T05:54:02.264Z,99.9
2019-05-06T05:55:09.553Z,99.9
2019-05-06T05:56:18.874Z,99.9
2019-05-06T05:57:26.080Z,99.9
2019-05-06T05:58:33.296Z,99.9
2019-05-06T05:59:42.165Z,99.9
2019-05-06T06:00:49.468Z,99.9
2019-05-06T06:01:58.812Z,99.9
2019-05-06T06:03:07.137Z,99.9
2019-05-06T06:04:14.528Z,99.9
2019-05-06T06:05:21.868Z,99.9
2019-05-06T06:06:29.144Z,99.9
2019-05-06T06:07:36.082Z,99.9
2019-05-06T06:08:43.346Z,99.9
2019-05-06T06:09:52.431Z,99.9
2019-05-06T06:10:59.733Z,99.9
2019-05-06T06:12:06.931Z,99.9
2019-05-06T06:13:13.870Z,99.9
2019-05-06T06:14:21.902Z,99.9
2019-05-06T06:15:29.144Z,99.9
2019-05-06T06:16:36.044Z,99.9
2019-05-06T06:17:43.264Z,99.9
2019-05-06T06:18:52.336Z,99.9
2019-05-06T06:19:59.641Z,99.9
2019-05-06T06:21:18.413Z,99.9
2019-05-06T06:22:34.776Z,99.9
2019-05-06T06:23:42.039Z,99.9
2019-05-06T06:24:48.971Z,99.9
2019-05-06T06:25:58.316Z,99.9
2019-05-06T06:27:05.522Z,99.9
2019-05-06T06:28:12.477Z,99.9
2019-05-06T06:29:19.681Z,99.9
2019-05-06T06:30:29.043Z,99.9
2019-05-06T06:31:36.253Z,99.9
2019-05-06T06:32:43.477Z,99.9
2019-05-06T06:33:52.823Z,99.9
2019-05-06T06:35:08.206Z,99.9
2019-05-06T06:36:23.067Z,99.9
2019-05-06T06:37:30.109Z,99.9
2019-05-06T06:38:39.959Z,99.9
2019-05-06T06:39:48.893Z,99.9
2019-05-06T06:40:56.103Z,99.9
2019-05-06T06:42:03.306Z,99.9
2019-05-06T06:43:12.385Z,99.9
2019-05-06T06:44:19.387Z,99.9
2019-05-06T06:45:28.860Z,99.9
2019-05-06T06:46:38.395Z,99.9
2019-05-06T06:47:45.615Z,99.1
2019-05-06T06:48:52.837Z,96.1
2019-05-06T06:49:59.772Z,99.4
2019-05-06T06:51:09.435Z,99.9
2019-05-06T06:52:18.792Z,98.5
2019-05-06T06:53:28.810Z,99.9
2019-05-06T06:54:35.478Z,93.7
2019-05-06T06:55:42.813Z,94
2019-05-06T06:57:03.084Z,78
2019-05-06T06:58:18.439Z,83.6
2019-05-06T06:59:25.669Z,78.9
2019-05-06T07:00:33.624Z,88.8
2019-05-06T07:01:42.294Z,83.3
2019-05-06T07:02:49.557Z,94.5
2019-05-06T07:03:58.451Z,90.1
2019-05-06T07:05:22.172Z,90.5
2019-05-06T07:06:35.192Z,85
2019-05-06T07:07:46.719Z,58.4
2019-05-06T07:08:54.837Z,68.4
2019-05-06T07:10:02.600Z,34.9
2019-05-06T07:11:09.955Z,40.7
2019-05-06T07:12:19.337Z,52.9
2019-05-06T07:13:29.170Z,21.6
2019-05-06T07:14:38.995Z,35.7
2019-05-06T07:15:48.540Z,18.2
2019-05-06T07:16:58.194Z,26.2
2019-05-06T07:18:05.166Z,14.2
2019-05-06T07:19:12.806Z,13
2019-05-06T07:20:20.034Z,12.5
2019-05-06T07:21:30.022Z,16.5
2019-05-06T07:22:42.334Z,28.5
2019-05-06T07:23:49.711Z,11.1
2019-05-06T07:24:58.723Z,9.9
2019-05-06T07:26:11.898Z,11.4
2019-05-06T07:27:19.342Z,5.5
2019-05-06T07:28:28.558Z,8.3
2019-05-06T07:29:38.361Z,10.9
2019-05-06T07:30:53.140Z,9.5
2019-05-06T07:32:02.497Z,4.8
2019-05-06T07:33:09.623Z,12.9
2019-05-06T07:34:19.411Z,14.6
2019-05-06T07:35:38.270Z,17.6
2019-05-06T07:36:52.419Z,7.2
2019-05-06T07:37:59.840Z,4.3
2019-05-06T07:39:09.151Z,14.4
2019-05-06T07:40:21.992Z,8
2019-05-06T07:41:29.296Z,1
2019-05-06T07:42:43.004Z,1
2019-05-06T07:43:52.383Z,1
2019-05-06T07:44:59.712Z,6.5
2019-05-06T07:46:12.627Z,1.6
2019-05-06T07:47:19.557Z,8.2
2019-05-06T07:48:26.764Z,15.1
2019-05-06T07:49:33.976Z,11.9
2019-05-06T07:50:42.480Z,1
2019-05-06T07:51:49.492Z,11.2
2019-05-06T07:52:58.802Z,2.5
2019-05-06T07:54:08.144Z,2.1
2019-05-06T07:55:15.086Z,11.3
2019-05-06T07:56:22.606Z,1
2019-05-06T07:57:29.843Z,1
2019-05-06T07:58:38.712Z,1
2019-05-06T07:59:45.938Z,1
2019-05-06T08:00:53.156Z,1
2019-05-06T08:02:02.232Z,1
2019-05-06T08:03:09.276Z,1
2019-05-06T08:04:19.697Z,1
2019-05-06T08:05:29.339Z,1
2019-05-06T08:06:39.057Z,1
2019-05-06T08:07:48.392Z,1
2019-05-06T08:08:55.598Z,1
2019-05-06T08:10:02.809Z,1
2019-05-06T08:11:12.119Z,1
2019-05-06T08:12:19.182Z,1
2019-05-06T08:13:29.039Z,1
2019-05-06T08:14:38.562Z,1
2019-05-06T08:15:45.789Z,1
2019-05-06T08:16:53.237Z,1
2019-05-06T08:18:02.971Z,1
2019-05-06T08:19:11.973Z,1
2019-05-06T08:20:19.252Z,1
2019-05-06T08:21:28.439Z,1
2019-05-06T08:22:35.652Z,1
2019-05-06T08:23:42.943Z,1
2019-05-06T08:24:50.153Z,1
2019-05-06T08:26:09.930Z,1
2019-05-06T08:27:24.369Z,1
2019-05-06T08:28:40.417Z,1
2019-05-06T08:29:52.593Z,1
2019-05-06T08:30:59.925Z,1
2019-05-06T08:32:09.143Z,1
2019-05-06T08:33:18.503Z,1
2019-05-06T08:34:27.738Z,1
2019-05-06T08:35:34.961Z,1
2019-05-06T08:36:42.722Z,1
2019-05-06T08:37:50.043Z,1
2019-05-06T08:38:59.393Z,1
2019-05-06T08:40:08.977Z,1
2019-05-06T08:41:18.231Z,1
2019-05-06T08:42:25.436Z,1
2019-05-06T08:43:32.726Z,1
2019-05-06T08:44:39.938Z,1
2019-05-06T08:45:49.360Z,1
2019-05-06T08:46:59.047Z,1
2019-05-06T08:48:08.191Z,1
2019-05-06T08:49:15.409Z,1
2019-05-06T08:50:22.079Z,1
2019-05-06T08:51:29.023Z,1
2019-05-06T08:52:38.969Z,1
2019-05-06T08:53:48.245Z,1
2019-05-06T08:54:55.467Z,1
2019-05-06T08:56:02.686Z,1
2019-05-06T08:57:09.351Z,1
2019-05-06T08:58:18.627Z,1
2019-05-06T08:59:28.392Z,1
2019-05-06T09:00:37.870Z,1
2019-05-06T09:01:44.804Z,1
2019-05-06T09:02:52.986Z,1
2019-05-06T09:04:09.327Z,1
2019-05-06T09:05:22.741Z,1
2019-05-06T09:06:31.176Z,1
2019-05-06T09:07:42.972Z,1
2019-05-06T09:08:52.116Z,1
2019-05-06T09:10:03.083Z,1
2019-05-06T09:11:12.185Z,1
2019-05-06T09:12:19.465Z,1
2019-05-06T09:13:28.599Z,1
2019-05-06T09:14:38.430Z,1
2019-05-06T09:15:45.646Z,1
2019-05-06T09:16:53.797Z,1
2019-05-06T09:18:02.933Z,1
2019-05-06T09:19:12.570Z,1
2019-05-06T09:20:19.755Z,1
2019-05-06T09:21:29.172Z,1
2019-05-06T09:22:39.235Z,1
2019-05-06T09:23:48.675Z,1
2019-05-06T09:24:55.877Z,1
2019-05-06T09:26:02.820Z,1
2019-05-06T09:27:12.123Z,1
2019-05-06T09:28:19.513Z,1
2019-05-06T09:29:29.648Z,1
2019-05-06T09:30:39.260Z,1
2019-05-06T09:31:46.213Z,1
2019-05-06T09:32:53.448Z,1
2019-05-06T09:34:02.687Z,1
2019-05-06T09:35:10.139Z,1
2019-05-06T09:36:19.807Z,1
2019-05-06T09:37:45.649Z,1
2019-05-06T09:38:53.063Z,1
2019-05-06T09:40:02.516Z,1
2019-05-06T09:41:12.292Z,1
2019-05-06T09:42:19.591Z,1
2019-05-06T09:43:29.233Z,1
2019-05-06T09:44:39.033Z,1
2019-05-06T09:45:48.935Z,1
2019-05-06T09:46:55.883Z,1
2019-05-06T09:48:04.030Z,1
2019-05-06T09:49:12.749Z,1
2019-05-06T09:50:19.789Z,1
2019-05-06T09:51:29.283Z,1
2019-05-06T09:52:39.205Z,1
2019-05-06T09:55:12.831Z,1
2019-05-06T09:56:20.145Z,1
2019-05-06T09:57:29.391Z,1
2019-05-06T09:58:38.982Z,1
2019-05-06T09:59:49.091Z,1
2019-05-06T10:00:58.438Z,1
2019-05-06T10:02:08.377Z,1
2019-05-06T10:03:18.184Z,1
2019-05-06T10:04:25.395Z,1
2019-05-06T10:05:32.356Z,1
2019-05-06T10:06:39.592Z,1
2019-05-06T10:08:08.385Z,1
2019-05-06T10:09:18.278Z,1
2019-05-06T10:10:25.497Z,1
2019-05-06T10:11:32.951Z,1
2019-05-06T10:12:41.944Z,1
2019-05-06T10:13:49.241Z,1
2019-05-06T10:14:58.690Z,1
2019-05-06T10:16:09.149Z,1
2019-05-06T10:17:16.078Z,1
2019-05-06T10:18:23.284Z,1
2019-05-06T10:19:32.079Z,1
2019-05-06T10:20:39.388Z,1
2019-05-06T10:21:49.518Z,1
2019-05-06T10:22:58.776Z,1
2019-05-06T10:24:05.987Z,1
2019-05-06T10:25:13.214Z,1
2019-05-06T10:26:20.427Z,1
2019-05-06T10:27:30.208Z,1
2019-05-06T10:28:37.147Z,1
2019-05-06T10:29:44.390Z,1
2019-05-06T10:30:51.330Z,1
2019-05-06T10:31:58.552Z,1
2019-05-06T10:33:05.772Z,1
2019-05-06T10:34:13.808Z,1
2019-05-06T10:35:22.163Z,1
2019-05-06T10:36:38.633Z,1
2019-05-06T10:37:45.839Z,1
2019-05-06T10:38:53.066Z,1
2019-05-06T10:40:02.842Z,1
2019-05-06T10:41:10.312Z,1
2019-05-06T10:42:19.356Z,1
2019-05-06T10:43:28.512Z,1
2019-05-06T10:44:35.453Z,1
2019-05-06T10:45:42.747Z,1
2019-05-06T10:46:52.440Z,1
2019-05-06T10:48:02.173Z,1
2019-05-06T10:49:09.535Z,1
2019-05-06T10:50:19.429Z,1
2019-05-06T10:51:28.716Z,1
2019-05-06T10:52:38.638Z,1
2019-05-06T10:53:45.860Z,1
2019-05-06T10:54:53.065Z,1
2019-05-06T10:56:02.268Z,1
2019-05-06T10:57:09.349Z,1
2019-05-06T10:58:18.790Z,1
2019-05-06T10:59:28.779Z,1
2019-05-06T11:00:38.360Z,1
2019-05-06T11:01:45.572Z,1
2019-05-06T11:02:52.782Z,1
2019-05-06T11:03:59.719Z,1
2019-05-06T11:05:09.093Z,1
2019-05-06T11:06:16.313Z,1
2019-05-06T11:07:31.220Z,1
2019-05-06T11:08:42.231Z,1
2019-05-06T11:09:49.445Z,1
2019-05-06T11:11:12.183Z,1
2019-05-06T11:12:44.733Z,1
2019-05-06T11:13:52.259Z,1
2019-05-06T11:14:59.535Z,1
2019-05-06T11:16:09.679Z,1
2019-05-06T11:17:23.244Z,1
2019-05-06T11:18:33.132Z,1
2019-05-06T11:19:42.626Z,1
2019-05-06T11:20:52.961Z,1
2019-05-06T11:22:03.738Z,1
2019-05-06T11:23:11.044Z,1
2019-05-06T11:24:22.607Z,1
2019-05-06T11:25:32.256Z,1
2019-05-06T11:26:39.609Z,1
2019-05-06T11:27:49.336Z,1
2019-05-06T11:28:59.428Z,1
2019-05-06T11:30:12.785Z,1
2019-05-06T11:31:20.035Z,1
2019-05-06T11:32:29.626Z,1
2019-05-06T11:33:39.244Z,1
2019-05-06T11:34:49.129Z,1
2019-05-06T11:35:58.879Z,1
2019-05-06T11:37:06.108Z,1
2019-05-06T11:38:13.074Z,1
2019-05-06T11:39:22.842Z,1
2019-05-06T11:40:32.810Z,1
2019-05-06T11:41:49.291Z,1
2019-05-06T11:43:42.802Z,1
2019-05-06T11:44:49.879Z,1
2019-05-06T11:45:59.763Z,1
2019-05-06T11:47:07.019Z,1
2019-05-06T11:48:14.597Z,1
2019-05-06T11:49:23.233Z,1
2019-05-06T11:50:30.567Z,1
2019-05-06T11:51:40.152Z,1
2019-05-06T11:52:52.980Z,1
2019-05-06T11:54:04.465Z,1
2019-05-06T11:55:34.278Z,1
2019-05-06T11:56:50.602Z,1
2019-05-06T11:58:05.024Z,1
2019-05-06T11:59:12.923Z,1
2019-05-06T12:00:20.253Z,1
2019-05-06T12:01:32.543Z,1
2019-05-06T12:02:42.017Z,1
2019-05-06T12:03:55.431Z,1
2019-05-06T12:05:02.641Z,1
2019-05-06T12:06:09.856Z,1
2019-05-06T12:07:19.666Z,1
2019-05-06T12:08:32.549Z,1
2019-05-06T12:09:39.851Z,1
2019-05-06T12:10:47.067Z,1
2019-05-06T12:11:53.735Z,1
2019-05-06T12:13:02.749Z,1
2019-05-06T12:14:12.293Z,1
2019-05-06T12:15:19.653Z,1
2019-05-06T12:16:29.214Z,1
2019-05-06T12:17:38.823Z,1
2019-05-06T12:18:48.376Z,1
2019-05-06T12:19:55.605Z,1
2019-05-06T12:21:08.923Z,1
2019-05-06T12:22:25.729Z,1
2019-05-06T12:23:35.245Z,1
2019-05-06T12:24:43.129Z,1
2019-05-06T12:25:50.156Z,1
2019-05-06T12:26:59.665Z,1
2019-05-06T12:28:09.476Z,1
2019-05-06T12:29:18.821Z,1
2019-05-06T12:30:26.035Z,1
2019-05-06T12:31:33.263Z,1
2019-05-06T12:32:40.469Z,1
2019-05-06T12:33:50.045Z,1
2019-05-06T12:34:59.538Z,1
2019-05-06T12:36:09.092Z,1
2019-05-06T12:37:19.014Z,1
2019-05-06T12:38:30.144Z,1
2019-05-06T12:39:38.040Z,1
2019-05-06T12:40:44.988Z,1
2019-05-06T12:41:53.394Z,1
2019-05-06T12:43:03.859Z,1
2019-05-06T12:44:13.049Z,1
2019-05-06T12:45:20.387Z,1
2019-05-06T12:46:29.842Z,1
2019-05-06T12:47:39.219Z,1
2019-05-06T12:48:48.897Z,1
2019-05-06T12:49:58.395Z,1
2019-05-06T12:51:05.332Z,1
2019-05-06T12:52:12.550Z,1
2019-05-06T12:53:19.766Z,1
2019-05-06T12:54:29.372Z,1
2019-05-06T12:55:39.267Z,1
2019-05-06T12:56:48.803Z,1
2019-05-06T12:57:58.061Z,1
2019-05-06T12:59:05.279Z,1
2019-05-06T13:00:12.957Z,1
2019-05-06T13:01:20.356Z,1
2019-05-06T13:02:27.622Z,1
2019-05-06T13:03:35.009Z,1
2019-05-06T13:04:51.074Z,1
2019-05-06T13:06:12.715Z,1
2019-05-06T13:07:19.944Z,1
2019-05-06T13:08:32.523Z,1
2019-05-06T13:10:12.917Z,1
2019-05-06T13:11:20.329Z,1
2019-05-06T13:12:27.551Z,1
2019-05-06T13:13:34.764Z,1
2019-05-06T13:14:43.052Z,1
2019-05-06T13:15:52.688Z,1
2019-05-06T13:16:59.841Z,1
2019-05-06T13:18:09.275Z,1
2019-05-06T13:19:16.603Z,1
2019-05-06T13:20:23.804Z,1
2019-05-06T13:21:32.708Z,1
2019-05-06T13:22:40.056Z,1
2019-05-06T13:23:47.274Z,1
2019-05-06T13:24:54.500Z,1
2019-05-06T13:26:02.031Z,1
2019-05-06T13:27:09.392Z,1
2019-05-06T13:28:19.369Z,1
2019-05-06T13:29:29.114Z,1
2019-05-06T13:30:43.302Z,1
2019-05-06T13:31:52.786Z,1
2019-05-06T13:33:00.337Z,1
2019-05-06T13:34:11.243Z,1
2019-05-06T13:35:18.940Z,1
2019-05-06T13:36:28.829Z,1
2019-05-06T13:37:39.082Z,1
2019-05-06T13:38:48.567Z,1
2019-05-06T13:40:06.944Z,1
2019-05-06T13:41:14.370Z,1
2019-05-06T13:42:22.595Z,1
2019-05-06T13:43:32.640Z,1
2019-05-06T13:44:39.733Z,1
2019-05-06T13:45:48.774Z,1
2019-05-06T13:46:58.733Z,1
2019-05-06T13:48:08.723Z,1
2019-05-06T13:49:15.949Z,1
2019-05-06T13:50:23.152Z,1
2019-05-06T13:51:32.308Z,1
2019-05-06T13:52:39.624Z,1
2019-05-06T13:53:48.972Z,1
2019-05-06T13:54:58.640Z,1
2019-05-06T13:56:08.762Z,1
2019-05-06T13:57:17.856Z,1
2019-05-06T13:58:24.796Z,1
2019-05-06T13:59:34.535Z,1
2019-05-06T14:00:43.881Z,1
2019-05-06T14:01:52.653Z,1
2019-05-06T14:03:01.887Z,1
2019-05-06T14:04:09.283Z,1
2019-05-06T14:05:18.670Z,1
2019-05-06T14:06:25.899Z,1
2019-05-06T14:07:34.371Z,1
2019-05-06T14:08:42.253Z,1
2019-05-06T14:09:49.308Z,1
2019-05-06T14:11:00.004Z,1
2019-05-06T14:12:09.403Z,1
2019-05-06T14:13:16.614Z,1
2019-05-06T14:14:23.827Z,1
2019-05-06T14:15:32.498Z,1
2019-05-06T14:17:48.929Z,1
2019-05-06T14:18:56.139Z,1
2019-05-06T14:20:03.351Z,1
2019-05-06T14:21:12.390Z,1
2019-05-06T14:22:19.745Z,1
2019-05-06T14:23:29.515Z,1
2019-05-06T14:24:38.982Z,1
2019-05-06T14:25:46.198Z,1
2019-05-06T14:26:57.281Z,1
2019-05-06T14:28:08.297Z,1
2019-05-06T14:29:15.511Z,1
2019-05-06T14:30:22.887Z,1
2019-05-06T14:31:32.501Z,1
2019-05-06T14:32:39.922Z,1
2019-05-06T14:33:49.463Z,1
2019-05-06T14:34:58.935Z,1
2019-05-06T14:36:06.173Z,1
2019-05-06T14:37:13.379Z,1
2019-05-06T14:38:24.215Z,1
2019-05-06T14:39:48.035Z,1
2019-05-06T14:41:07.867Z,1
2019-05-06T14:42:15.550Z,1
2019-05-06T14:43:22.922Z,1
2019-05-06T14:44:32.381Z,1
2019-05-06T14:45:42.146Z,1
2019-05-06T14:46:49.495Z,1
2019-05-06T14:47:56.722Z,1
2019-05-06T14:49:04.309Z,1
2019-05-06T14:50:14.368Z,1
2019-05-06T14:51:22.309Z,1
2019-05-06T14:52:29.564Z,1
2019-05-06T14:53:39.646Z,1
2019-05-06T14:54:49.824Z,1
2019-05-06T14:55:59.450Z,1
2019-05-06T14:57:09.191Z,1
2019-05-06T14:58:18.925Z,1
2019-05-06T14:59:28.585Z,1
2019-05-06T15:00:35.813Z,1
2019-05-06T15:01:45.379Z,1
2019-05-06T15:02:53.364Z,1
2019-05-06T15:04:00.641Z,1
2019-05-06T15:05:07.851Z,1
2019-05-06T15:06:15.068Z,1
2019-05-06T15:07:22.278Z,1
2019-05-06T15:08:29.491Z,1
2019-05-06T15:09:53.443Z,1
2019-05-06T15:11:32.523Z,1
2019-05-06T15:12:39.769Z,1
2019-05-06T15:13:49.356Z,1
2019-05-06T15:14:58.904Z,1
2019-05-06T15:16:06.125Z,1
2019-05-06T15:17:14.364Z,1
2019-05-06T15:18:22.427Z,1
2019-05-06T15:19:30.136Z,1
2019-05-06T15:20:37.088Z,1
2019-05-06T15:21:44.316Z,1
2019-05-06T15:22:52.899Z,1
2019-05-06T15:24:02.376Z,1
2019-05-06T15:25:09.896Z,1
2019-05-06T15:26:19.630Z,1
2019-05-06T15:27:28.724Z,1
2019-05-06T15:28:35.935Z,1
2019-05-06T15:29:42.877Z,1
2019-05-06T15:30:52.451Z,1
2019-05-06T15:32:02.347Z,1
2019-05-06T15:33:09.740Z,1
2019-05-06T22:00:06.213Z,99.9
2019-05-06T22:01:13.421Z,99.9
2019-05-06T22:02:22.882Z,99.9
2019-05-06T22:03:32.406Z,99.9
2019-05-06T22:04:39.852Z,99.9
2019-05-06T22:05:49.555Z,99.9
2019-05-06T22:07:02.773Z,99.9
2019-05-06T22:08:10.171Z,99.9
2019-05-06T22:09:19.519Z,99.9
2019-05-06T22:10:28.760Z,99.9
2019-05-06T22:11:38.266Z,99.9
2019-05-06T22:12:48.059Z,99.9
2019-05-06T22:14:00.731Z,99.9
2019-05-06T22:15:08.701Z,99.9
2019-05-06T22:16:17.611Z,99.9
2019-05-06T22:17:24.555Z,99.9
2019-05-06T22:18:31.788Z,99.9
2019-05-06T22:19:38.782Z,99.9
2019-05-06T22:20:46.012Z,99.9
2019-05-06T22:21:53.218Z,99.9
2019-05-06T22:23:00.418Z,99.9
2019-05-06T22:24:07.626Z,99.9
2019-05-06T22:25:14.555Z,99.9
2019-05-06T22:26:23.046Z,99.9
2019-05-06T22:27:30.525Z,99.9
2019-05-06T22:28:37.724Z,99.9
2019-05-06T22:29:44.929Z,99.9
2019-05-06T22:30:52.141Z,99.9
2019-05-06T22:31:59.092Z,99.9
2019-05-06T22:33:08.596Z,99.9
2019-05-06T22:34:15.936Z,99.9
2019-05-06T22:35:23.225Z,99.9
2019-05-06T22:36:32.255Z,99.9
2019-05-06T22:37:39.570Z,99.9
2019-05-06T22:38:52.940Z,99.9
2019-05-06T22:40:02.183Z,99.9
2019-05-06T22:41:09.481Z,99.9
2019-05-06T22:42:16.686Z,99.9